createdAt,value
2022-10-19T00:00:46.694Z,5.03
2022-10-19T00:03:12.932Z,11.07
2022-10-19T00:05:39.157Z,4.45
2022-10-19T00:08:05.434Z,8.27
2022-10-19T00:10:32.196Z,4.80
2022-10-19T00:12:58.554Z,2.92
2022-10-19T00:15:24.782Z,0.90
2022-10-19T00:17:51.045Z,1.27
2022-10-19T00:20:17.282Z,4.57
2022-10-19T00:22:43.486Z,9.80
2022-10-19T00:25:09.722Z,8.77
2022-10-19T00:27:35.998Z,7.70
2022-10-19T00:30:02.230Z,3.72
2022-10-19T00:32:28.431Z,5.22
2022-10-19T00:34:54.634Z,1.70
2022-10-19T00:37:20.836Z,2.40
2022-10-19T00:39:47.138Z,1.90
2022-10-19T00:42:13.414Z,2.25
2022-10-19T00:44:39.608Z,1.92
2022-10-19T00:47:07.734Z,0.65
2022-10-19T00:49:35.872Z,0.40
2022-10-19T00:52:04.403Z,1.30
2022-10-19T00:54:31.754Z,6.68
2022-10-19T00:56:58.730Z,2.97
2022-10-19T00:59:26.628Z,3.35
2022-10-19T01:01:53.267Z,3.17
2022-10-19T01:04:23.395Z,2.78
2022-10-19T01:09:21.027Z,3.33
2022-10-19T01:12:07.145Z,2.25
2022-10-19T01:14:52.154Z,0.95
2022-10-19T01:17:18.353Z,0.90
2022-10-19T01:19:50.560Z,1.83
2022-10-19T01:22:16.747Z,2.90
2022-10-19T01:25:01.687Z,0.22
2022-10-19T01:27:48.156Z,0.10
2022-10-19T01:30:23.299Z,0.00
2022-10-19T01:32:49.474Z,0.20
2022-10-19T01:35:25.947Z,5.93
2022-10-19T01:38:05.374Z,4.47
2022-10-19T01:40:37.876Z,2.15
2022-10-19T01:43:24.376Z,0.70
2022-10-19T01:45:53.952Z,1.63
2022-10-19T01:48:26.762Z,2.45
2022-10-19T01:51:01.621Z,2.97
2022-10-19T01:53:29.678Z,0.82
2022-10-19T01:55:56.372Z,0.20
2022-10-19T01:58:25.460Z,0.38
2022-10-19T02:00:52.857Z,0.20
2022-10-19T02:03:19.640Z,0.00
2022-10-19T02:05:46.974Z,0.20
2022-10-19T02:08:24.877Z,0.22
2022-10-19T02:10:51.197Z,0.08
2022-10-19T02:13:18.485Z,0.70
2022-10-19T02:15:46.822Z,1.48
2022-10-19T02:18:15.511Z,0.60
2022-10-19T02:20:41.764Z,2.03
2022-10-19T02:23:08.142Z,4.22
2022-10-19T02:25:34.652Z,9.35
2022-10-19T02:28:02.003Z,8.77
2022-10-19T02:30:28.454Z,1.42
2022-10-19T02:32:54.728Z,0.93
2022-10-19T02:35:21.042Z,3.88
2022-10-19T02:37:47.319Z,10.60
2022-10-19T02:40:13.825Z,5.72
2022-10-19T02:42:54.078Z,3.60
2022-10-19T02:45:28.226Z,4.72
2022-10-19T02:48:00.197Z,4.30
2022-10-19T02:50:26.733Z,1.58
2022-10-19T02:52:52.977Z,1.00
2022-10-19T02:55:19.264Z,0.95
2022-10-19T02:57:45.530Z,0.30
2022-10-19T03:00:12.036Z,0.50
2022-10-19T03:02:38.236Z,3.28
2022-10-19T03:05:04.547Z,2.45
2022-10-19T03:07:30.833Z,2.78
2022-10-19T03:09:58.315Z,0.80
2022-10-19T03:12:24.535Z,0.63
2022-10-19T03:14:50.734Z,0.17
2022-10-19T03:17:16.984Z,3.65
2022-10-19T03:19:43.226Z,1.40
2022-10-19T03:22:09.440Z,0.20
2022-10-19T03:24:35.667Z,0.00
2022-10-19T03:27:02.080Z,0.20
2022-10-19T03:29:28.396Z,0.00
2022-10-19T03:31:55.379Z,0.20
2022-10-19T03:34:21.591Z,0.17
2022-10-19T03:36:47.882Z,0.10
2022-10-19T03:39:15.084Z,0.08
2022-10-19T03:41:41.466Z,0.10
2022-10-19T03:44:08.464Z,0.20
2022-10-19T03:46:35.442Z,0.00
2022-10-19T03:49:01.987Z,0.00
2022-10-19T03:51:29.121Z,0.00
2022-10-19T03:53:56.207Z,0.00
2022-10-19T03:56:23.591Z,0.00
2022-10-19T03:58:50.603Z,0.05
2022-10-19T04:01:17.956Z,0.05
2022-10-19T04:03:44.321Z,0.05
2022-10-19T04:06:14.814Z,0.00
2022-10-19T04:08:43.983Z,0.03
2022-10-19T04:11:14.282Z,0.10
2022-10-19T04:13:40.689Z,0.00
2022-10-19T04:16:07.168Z,0.00
2022-10-19T04:18:33.552Z,0.20
2022-10-19T04:21:01.177Z,0.05
2022-10-19T04:23:28.142Z,0.10
2022-10-19T04:26:00.939Z,0.00
2022-10-19T04:28:27.349Z,0.00
2022-10-19T04:30:53.596Z,0.10
2022-10-19T04:33:19.860Z,0.40
2022-10-19T04:35:46.099Z,0.10
2022-10-19T04:38:12.332Z,0.10
2022-10-19T04:40:38.648Z,0.10
2022-10-19T04:43:05.150Z,0.00
2022-10-19T04:45:31.631Z,0.00
2022-10-19T04:47:57.843Z,0.05
2022-10-19T04:50:24.451Z,0.22
2022-10-19T04:52:50.867Z,0.08
2022-10-19T04:55:18.184Z,0.03
2022-10-19T04:57:44.402Z,0.10
2022-10-19T05:00:10.925Z,0.05
2022-10-19T05:02:37.143Z,0.10
2022-10-19T05:05:03.408Z,0.00
2022-10-19T05:07:29.629Z,0.03
2022-10-19T05:09:55.853Z,0.03
2022-10-19T05:12:22.067Z,0.25
2022-10-19T05:14:48.272Z,0.00
2022-10-19T05:17:14.500Z,0.00
2022-10-19T05:19:40.692Z,0.00
2022-10-19T05:22:06.886Z,0.00
2022-10-19T05:24:33.159Z,0.10
2022-10-19T05:26:59.383Z,0.10
2022-10-19T05:29:25.670Z,0.00
2022-10-19T05:31:51.888Z,0.00
2022-10-19T05:34:18.127Z,0.00
2022-10-19T05:36:44.358Z,0.10
2022-10-19T05:39:13.507Z,0.10
2022-10-19T05:41:40.181Z,0.00
2022-10-19T05:44:06.454Z,0.00
2022-10-19T05:46:33.374Z,0.00
2022-10-19T05:48:59.624Z,0.10
2022-10-19T05:51:26.649Z,0.10
2022-10-19T05:53:53.634Z,0.00
2022-10-19T05:56:24.177Z,0.10
2022-10-19T05:58:50.469Z,0.30
2022-10-19T06:01:18.995Z,0.00
2022-10-19T06:03:45.697Z,0.00
2022-10-19T06:06:11.934Z,0.00
2022-10-19T06:08:38.907Z,0.00
2022-10-19T06:11:09.588Z,0.08
2022-10-19T06:13:36.072Z,0.00
2022-10-19T06:16:02.378Z,0.00
2022-10-19T06:18:29.477Z,0.00
2022-10-19T06:20:55.686Z,0.10
2022-10-19T06:23:21.888Z,0.00
2022-10-19T06:25:48.151Z,0.13
2022-10-19T06:28:14.516Z,0.00
2022-10-19T06:30:41.237Z,0.10
2022-10-19T06:33:07.646Z,0.10
2022-10-19T06:35:33.984Z,0.10
2022-10-19T06:38:00.189Z,0.00
2022-10-19T06:40:26.475Z,0.30
2022-10-19T06:42:54.477Z,0.10
2022-10-19T06:45:20.839Z,0.03
2022-10-19T06:50:18.393Z,0.10
2022-10-19T06:52:45.972Z,0.08
2022-10-19T06:55:12.411Z,0.10
2022-10-19T06:57:38.685Z,0.00
2022-10-19T07:00:06.486Z,0.10
2022-10-19T07:02:33.518Z,0.10
2022-10-19T07:05:04.457Z,0.20
2022-10-19T07:07:33.892Z,0.10
2022-10-19T07:10:00.301Z,0.10
2022-10-19T07:12:26.559Z,0.10
2022-10-19T07:14:54.281Z,0.10
2022-10-19T07:17:20.497Z,0.00
2022-10-19T07:19:46.717Z,0.13
2022-10-19T07:22:17.324Z,0.05
2022-10-19T07:24:46.709Z,0.00
2022-10-19T07:27:12.955Z,0.00
2022-10-19T07:29:39.154Z,0.10
2022-10-19T07:32:05.472Z,0.00
2022-10-19T07:34:32.000Z,0.13
2022-10-19T07:36:58.392Z,0.10
2022-10-19T07:39:24.662Z,0.10
2022-10-19T07:41:50.906Z,0.13
2022-10-19T07:44:17.175Z,0.10
2022-10-19T07:46:43.955Z,0.10
2022-10-19T07:49:12.765Z,0.28
2022-10-19T07:51:39.083Z,0.20
2022-10-19T07:54:05.425Z,0.10
2022-10-19T07:56:32.213Z,0.10
2022-10-19T07:58:59.150Z,0.20
2022-10-19T08:01:26.872Z,0.20
2022-10-19T08:06:40.063Z,0.10
2022-10-19T08:09:06.412Z,0.20
2022-10-19T08:11:34.149Z,0.30
2022-10-19T08:14:02.803Z,0.20
2022-10-19T08:16:42.030Z,1.10
2022-10-19T08:19:09.719Z,0.32
2022-10-19T08:21:36.720Z,0.50
2022-10-19T08:24:03.110Z,0.43
2022-10-19T08:26:30.183Z,0.60
2022-10-19T08:29:03.681Z,0.40
2022-10-19T08:31:29.973Z,0.30
2022-10-19T08:33:56.206Z,0.40
2022-10-19T08:36:22.591Z,0.30
2022-10-19T08:38:49.083Z,0.15
2022-10-19T08:41:20.777Z,0.40
2022-10-19T08:43:54.710Z,0.43
2022-10-19T08:46:29.950Z,0.73
2022-10-19T08:48:56.195Z,0.20
2022-10-19T08:51:22.487Z,0.30
2022-10-19T08:53:54.285Z,0.20
2022-10-19T08:56:45.927Z,0.10
2022-10-19T08:59:15.980Z,0.22
2022-10-19T09:01:59.639Z,0.20
2022-10-19T09:04:30.903Z,0.20
2022-10-19T09:07:15.768Z,0.28
2022-10-19T09:09:43.871Z,0.15
2022-10-19T09:12:12.635Z,0.10
2022-10-19T09:14:45.487Z,0.30
2022-10-19T09:17:15.804Z,0.20
2022-10-19T09:19:42.135Z,0.15
2022-10-19T09:22:19.654Z,0.10
2022-10-19T09:24:50.724Z,0.10
2022-10-19T09:27:28.639Z,0.32
2022-10-19T09:29:58.775Z,0.45
2022-10-19T09:32:27.730Z,0.15
2022-10-19T09:34:54.995Z,0.17
2022-10-19T09:37:25.989Z,0.28
2022-10-19T09:39:55.007Z,0.30
2022-10-19T09:42:26.226Z,0.25
2022-10-19T09:44:54.279Z,0.52
2022-10-19T09:47:34.683Z,0.38
2022-10-19T09:50:20.223Z,0.00
2022-10-19T09:52:47.750Z,0.10
2022-10-19T09:55:13.926Z,0.20
2022-10-19T09:57:46.480Z,0.20
2022-10-19T10:00:23.235Z,0.15
2022-10-19T10:02:55.990Z,0.20
2022-10-19T10:05:32.966Z,0.20
2022-10-19T10:07:59.292Z,0.20
2022-10-19T10:10:30.511Z,0.30
2022-10-19T10:13:00.902Z,0.30
2022-10-19T10:15:28.786Z,0.10
2022-10-19T10:17:55.883Z,1.33
2022-10-19T10:20:24.005Z,0.10
2022-10-19T10:23:04.139Z,0.32
2022-10-19T10:25:31.630Z,0.10
2022-10-19T10:27:59.644Z,0.30
2022-10-19T10:30:26.802Z,0.10
2022-10-19T10:32:54.080Z,0.28
2022-10-19T10:35:25.772Z,0.17
2022-10-19T10:37:52.314Z,0.13
2022-10-19T10:40:28.494Z,0.10
2022-10-19T10:42:56.281Z,0.40
2022-10-19T10:45:28.475Z,0.22
2022-10-19T10:50:36.241Z,0.20
2022-10-19T10:53:03.810Z,0.10
2022-10-19T10:55:30.810Z,0.10
2022-10-19T10:58:14.616Z,0.00
2022-10-19T11:00:41.735Z,0.13
2022-10-19T11:03:13.204Z,0.10
2022-10-19T11:05:41.853Z,0.30
2022-10-19T11:08:20.012Z,0.13
2022-10-19T11:10:59.282Z,0.20
2022-10-19T11:13:28.373Z,0.10
2022-10-19T11:16:04.986Z,0.15
2022-10-19T11:18:31.232Z,0.20
2022-10-19T11:20:57.433Z,0.10
2022-10-19T11:23:30.703Z,2.03
2022-10-19T11:26:02.918Z,0.17
2022-10-19T11:28:37.604Z,0.15
2022-10-19T11:31:29.702Z,0.10
2022-10-19T11:34:03.650Z,0.20
2022-10-19T11:36:48.203Z,0.20
2022-10-19T11:39:21.606Z,0.20
2022-10-19T11:41:57.189Z,0.10
2022-10-19T11:44:46.842Z,0.20
2022-10-19T11:47:37.154Z,0.30
2022-10-19T11:50:03.642Z,0.10
2022-10-19T11:52:35.830Z,0.20
2022-10-19T11:55:17.406Z,0.20
2022-10-19T11:57:43.575Z,0.15
2022-10-19T12:00:37.523Z,0.20
2022-10-19T12:05:49.722Z,0.10
2022-10-19T12:08:34.849Z,0.10
2022-10-19T12:11:01.088Z,0.17
2022-10-19T12:13:29.466Z,0.15
2022-10-19T12:15:55.929Z,0.10
2022-10-19T12:18:24.885Z,0.10
2022-10-19T12:20:52.588Z,0.15
2022-10-19T12:23:26.304Z,0.10
2022-10-19T12:25:53.403Z,0.20
2022-10-19T12:28:26.905Z,0.00
2022-10-19T12:30:53.555Z,0.10
2022-10-19T12:33:22.629Z,0.10
2022-10-19T12:36:07.656Z,0.28
2022-10-19T12:39:00.145Z,0.20
2022-10-19T12:41:35.569Z,0.28
2022-10-19T12:44:08.757Z,0.15
2022-10-19T12:46:49.791Z,0.30
2022-10-19T12:49:34.361Z,0.20
2022-10-19T12:52:01.059Z,0.00
2022-10-19T12:54:28.515Z,0.00
2022-10-19T12:56:55.448Z,0.20
2022-10-19T12:59:26.405Z,0.15
2022-10-19T13:01:53.562Z,0.25
2022-10-19T13:04:24.611Z,0.20
2022-10-19T13:06:58.429Z,0.50
2022-10-19T13:09:44.992Z,0.17
2022-10-19T13:12:21.590Z,0.10
2022-10-19T13:14:52.684Z,0.17
2022-10-19T13:17:41.249Z,0.15
2022-10-19T13:20:13.967Z,0.15
2022-10-19T13:22:46.606Z,0.10
2022-10-19T13:25:15.861Z,0.10
2022-10-19T13:27:42.494Z,0.13
2022-10-19T13:30:28.668Z,0.10
2022-10-19T13:32:54.867Z,0.25
2022-10-19T13:35:33.880Z,0.40
2022-10-19T13:38:09.244Z,0.20
2022-10-19T13:40:40.499Z,0.30
2022-10-19T13:43:16.116Z,0.23
2022-10-19T13:45:44.673Z,0.10
2022-10-19T13:48:18.019Z,0.30
2022-10-19T13:50:51.336Z,0.10
2022-10-19T13:53:24.539Z,0.10
2022-10-19T13:55:56.999Z,0.47
2022-10-19T13:58:44.708Z,0.47
2022-10-19T14:01:13.930Z,0.10
2022-10-19T14:03:53.241Z,0.20
2022-10-19T14:06:24.711Z,0.13
2022-10-19T14:08:59.727Z,0.20
2022-10-19T14:14:12.769Z,0.17
2022-10-19T14:16:50.033Z,0.10
2022-10-19T14:19:26.628Z,0.20
2022-10-19T14:21:55.588Z,0.43
2022-10-19T14:24:27.442Z,0.20
2022-10-19T14:26:54.116Z,0.10
2022-10-19T14:29:20.545Z,0.10
2022-10-19T14:31:46.856Z,0.10
2022-10-19T14:34:14.002Z,0.15
2022-10-19T14:36:44.111Z,0.20
2022-10-19T14:39:21.985Z,0.20
2022-10-19T14:41:52.820Z,0.30
2022-10-19T14:44:39.615Z,0.20
2022-10-19T14:47:17.549Z,0.20
2022-10-19T14:49:43.853Z,0.13
2022-10-19T14:52:13.201Z,0.17
2022-10-19T14:54:42.563Z,0.20
2022-10-19T14:57:13.054Z,0.32
2022-10-19T14:59:53.672Z,0.20
2022-10-19T15:02:31.334Z,0.28
2022-10-19T15:04:59.129Z,0.10
2022-10-19T15:07:28.051Z,0.20
2022-10-19T15:09:55.441Z,0.20
2022-10-19T15:12:25.607Z,0.15
2022-10-19T15:14:51.897Z,0.20
2022-10-19T15:17:37.822Z,0.20
2022-10-19T15:20:04.819Z,0.20
2022-10-19T15:22:31.135Z,0.10
2022-10-19T15:25:06.394Z,0.08
2022-10-19T15:27:32.671Z,0.13
2022-10-19T15:29:58.843Z,0.30
2022-10-19T15:32:36.078Z,0.22
2022-10-19T15:35:15.519Z,0.10
2022-10-19T15:37:43.024Z,0.50
2022-10-19T15:40:10.807Z,0.10
2022-10-19T15:42:39.079Z,0.15
2022-10-19T15:45:25.308Z,0.13
2022-10-19T15:48:09.812Z,0.10
2022-10-19T15:50:38.374Z,0.30
2022-10-19T15:53:04.579Z,0.17
2022-10-19T15:55:30.886Z,0.10
2022-10-19T15:58:00.378Z,0.25
2022-10-19T16:00:28.378Z,0.20
2022-10-19T16:02:54.587Z,0.17
2022-10-19T16:05:20.936Z,0.28
2022-10-19T16:07:47.151Z,0.20
2022-10-19T16:10:15.786Z,0.13
2022-10-19T16:12:42.076Z,0.20
2022-10-19T16:15:11.578Z,0.30
2022-10-19T16:17:38.005Z,0.17
2022-10-19T16:20:06.151Z,0.20
2022-10-19T16:22:32.534Z,0.20
2022-10-19T16:24:58.729Z,0.20
2022-10-19T16:27:24.947Z,0.30
2022-10-19T16:29:51.159Z,0.20
2022-10-19T16:32:17.426Z,0.13
2022-10-19T16:34:43.671Z,0.10
2022-10-19T16:37:09.874Z,0.30
2022-10-19T16:39:36.079Z,0.20
2022-10-19T16:42:02.293Z,0.15
2022-10-19T16:44:28.565Z,0.10
2022-10-19T16:46:58.260Z,0.28
2022-10-19T16:49:24.606Z,0.20
2022-10-19T16:51:53.255Z,0.17
2022-10-19T16:54:23.038Z,0.40
2022-10-19T16:56:49.355Z,0.20
2022-10-19T16:59:16.944Z,0.30
2022-10-19T17:01:47.007Z,0.13
2022-10-19T17:04:14.483Z,0.13
2022-10-19T17:06:40.926Z,0.32
2022-10-19T17:09:40.191Z,0.20
2022-10-19T17:11:53.692Z,0.17
2022-10-19T17:14:19.888Z,0.20
2022-10-19T17:16:46.092Z,0.30
2022-10-19T17:19:12.509Z,0.10
2022-10-19T17:21:39.102Z,0.22
2022-10-19T17:24:06.728Z,0.10
2022-10-19T17:26:34.402Z,0.20
2022-10-19T17:29:00.901Z,0.10
2022-10-19T17:31:27.824Z,0.65
2022-10-19T17:33:54.256Z,0.22
2022-10-19T17:36:22.591Z,0.30
2022-10-19T17:38:48.912Z,0.17
2022-10-19T17:41:16.257Z,0.40
2022-10-19T17:43:43.209Z,0.20
2022-10-19T17:46:10.474Z,0.13
2022-10-19T17:48:37.496Z,0.68
2022-10-19T17:51:05.501Z,0.20
2022-10-19T17:53:32.038Z,0.10
2022-10-19T17:56:05.206Z,0.30
2022-10-19T17:58:32.595Z,0.10
2022-10-19T18:00:59.944Z,0.25
2022-10-19T18:03:27.087Z,0.20
2022-10-19T18:05:57.528Z,0.10
2022-10-19T18:08:23.910Z,0.10
2022-10-19T18:10:54.248Z,0.10
2022-10-19T18:13:20.478Z,0.15
2022-10-19T18:15:46.685Z,0.10
2022-10-19T18:18:12.900Z,0.30
2022-10-19T18:20:39.716Z,0.35
2022-10-19T18:23:06.020Z,0.28
2022-10-19T18:25:53.072Z,0.20
2022-10-19T18:28:18.506Z,0.00
2022-10-19T18:30:45.330Z,0.10
2022-10-19T18:33:11.751Z,0.25
2022-10-19T18:35:38.846Z,0.20
2022-10-19T18:38:05.909Z,0.13
2022-10-19T18:40:36.067Z,0.30
2022-10-19T18:43:02.282Z,0.20
2022-10-19T18:45:28.570Z,0.20
2022-10-19T18:47:54.949Z,0.20
2022-10-19T18:50:21.149Z,0.15
2022-10-19T18:52:47.357Z,0.20
2022-10-19T18:55:13.592Z,0.20
2022-10-19T18:57:39.863Z,0.10
2022-10-19T19:00:06.350Z,0.30
2022-10-19T19:02:46.498Z,0.40
2022-10-19T19:05:13.351Z,0.20
2022-10-19T19:07:39.645Z,0.20
2022-10-19T19:10:06.154Z,0.30
2022-10-19T19:12:32.637Z,0.17
2022-10-19T19:14:59.084Z,0.10
2022-10-19T19:17:25.347Z,0.20
2022-10-19T19:19:51.633Z,0.20
2022-10-19T19:22:18.154Z,0.10
2022-10-19T19:24:44.431Z,0.10
2022-10-19T19:27:10.701Z,0.08
2022-10-19T19:29:36.978Z,0.15
2022-10-19T19:32:04.446Z,0.20
2022-10-19T19:34:30.662Z,0.20
2022-10-19T19:36:56.869Z,0.13
2022-10-19T19:39:23.213Z,0.38
2022-10-19T19:41:49.838Z,0.03
2022-10-19T19:44:16.392Z,0.10
2022-10-19T19:46:42.903Z,0.10
2022-10-19T19:49:09.290Z,0.20
2022-10-19T19:51:35.607Z,0.10
2022-10-19T19:54:01.856Z,0.10
2022-10-19T19:56:28.947Z,0.20
2022-10-19T19:58:58.339Z,0.20
2022-10-19T20:01:25.057Z,0.10
2022-10-19T20:03:51.631Z,0.10
2022-10-19T20:06:20.749Z,0.10
2022-10-19T20:08:49.867Z,0.30
2022-10-19T20:11:17.407Z,0.30
2022-10-19T20:13:44.899Z,0.30
2022-10-19T20:16:13.306Z,0.10
2022-10-19T20:18:40.330Z,0.15
2022-10-19T20:21:06.615Z,0.30
2022-10-19T20:23:33.122Z,0.10
2022-10-19T20:25:59.340Z,0.10
2022-10-19T20:28:26.340Z,0.10
2022-10-19T20:30:59.174Z,0.20
2022-10-19T20:33:25.370Z,0.25
2022-10-19T20:35:51.573Z,0.17
2022-10-19T20:38:17.770Z,0.20
2022-10-19T20:40:43.970Z,0.10
2022-10-19T20:43:11.248Z,0.20
2022-10-19T20:45:37.571Z,0.15
2022-10-19T20:48:03.818Z,0.10
2022-10-19T20:50:30.138Z,0.10
2022-10-19T20:52:56.352Z,0.10
2022-10-19T20:55:22.572Z,0.20
2022-10-19T20:57:48.857Z,0.03
2022-10-19T21:00:15.307Z,0.10
2022-10-19T21:02:43.775Z,0.20
2022-10-19T21:05:10.030Z,0.25
2022-10-19T21:07:36.232Z,0.20
2022-10-19T21:10:02.531Z,0.10
2022-10-19T21:12:28.764Z,0.20
2022-10-19T21:14:54.978Z,0.10
2022-10-19T21:17:21.380Z,0.10
2022-10-19T21:19:47.624Z,0.20
2022-10-19T21:22:13.904Z,0.15
2022-10-19T21:24:40.115Z,0.13
2022-10-19T21:27:08.933Z,0.15
2022-10-19T21:29:35.941Z,0.10
2022-10-19T21:32:02.160Z,0.10
2022-10-19T21:34:29.577Z,0.20
2022-10-19T21:36:56.155Z,0.10
2022-10-19T21:39:22.381Z,0.10
2022-10-19T21:41:48.647Z,0.10
2022-10-19T21:44:16.220Z,0.10
2022-10-19T21:46:45.435Z,0.10
2022-10-19T21:49:12.113Z,0.25
2022-10-19T21:51:41.631Z,0.10
2022-10-19T21:56:37.658Z,0.20
2022-10-19T21:59:04.069Z,0.10
2022-10-19T22:01:36.010Z,0.10
2022-10-19T22:04:06.007Z,0.17
2022-10-19T22:06:33.513Z,0.20
2022-10-19T22:09:00.253Z,0.00
2022-10-19T22:11:27.288Z,0.17
2022-10-19T22:13:54.627Z,0.28
2022-10-19T22:16:20.867Z,0.00
2022-10-19T22:18:47.425Z,0.15
2022-10-19T22:21:18.439Z,0.32
2022-10-19T22:23:45.134Z,0.17
2022-10-19T22:26:15.490Z,0.10
2022-10-19T22:28:42.147Z,0.20
2022-10-19T22:31:08.415Z,0.10
2022-10-19T22:33:35.181Z,0.20
2022-10-19T22:36:02.323Z,0.00
2022-10-19T22:38:28.983Z,0.10
2022-10-19T22:41:32.859Z,0.10
2022-10-19T22:43:59.123Z,0.20
2022-10-19T22:46:25.414Z,0.10
2022-10-19T22:48:51.618Z,0.20
2022-10-19T22:51:17.858Z,0.17
2022-10-19T22:53:44.101Z,0.10
2022-10-19T22:56:11.410Z,0.10
2022-10-19T22:58:37.654Z,0.10
2022-10-19T23:01:05.705Z,0.10
2022-10-19T23:03:32.239Z,0.13
2022-10-19T23:05:58.519Z,0.17
2022-10-19T23:08:24.810Z,0.20
2022-10-19T23:10:51.059Z,0.20
2022-10-19T23:13:17.660Z,0.10
2022-10-19T23:15:44.599Z,0.13
2022-10-19T23:18:11.105Z,0.20
2022-10-19T23:20:37.332Z,0.20
2022-10-19T23:23:03.626Z,0.10
2022-10-19T23:25:29.848Z,0.10
2022-10-19T23:27:56.066Z,0.20
2022-10-19T23:30:22.346Z,0.10
2022-10-19T23:32:48.551Z,0.20
2022-10-19T23:35:14.839Z,0.30
2022-10-19T23:37:41.059Z,0.20
2022-10-19T23:40:07.644Z,0.20
2022-10-19T23:42:33.870Z,0.10
2022-10-19T23:45:00.078Z,0.20
2022-10-19T23:47:26.394Z,0.17
2022-10-19T23:49:52.610Z,0.20
2022-10-19T23:52:18.814Z,0.10
2022-10-19T23:54:45.004Z,0.03
2022-10-19T23:57:11.202Z,0.55
2022-10-19T23:59:37.408Z,0.20
